Hastings, NE

12:59 PM CDT on September 30, 2014 (GMT -0500)
West 12th Street | Change Station
CLOSE
Current Station
Personal Weather Station
Location: Hastings, NE
Elevation: 1934 ft
Nearby Weather Stations

Elev 1934 ft 40.60 °N, 98.40 °W | Updated 1 second ago

Overcast
Overcast
70.3 °F
Feels Like 73 °F
N
0.0
Wind Variable Wind from SSW
Gusts 20.0 mph

Today
High -- | Low -- °F
--% Chance of Precip.
Yesterday
High -- | Low -- °F
Precip. -- in
7:29 AM 7:17 PM
Waxing Crescent, 38% visible
Pressure 29.78 in
Visibility 10.0 miles
Clouds Few 1700 ft
Few 4400 ft
Mostly Cloudy 9500 ft
Heat Index 73 °F
Dew Point 61 °F
Humidity 72%
Rainfall 0.00 in
Snow Depth Not available.
UV 3 out of 12
Pollen 3.10 out of 12
Air Quality Not available.
Flu Activity Not available.
METAR KHSI 301653Z AUTO 19008KT 160V220 10SM -RA FEW017 FEW044 BKN095 20/14 A2981 RMK AO2 RAB46 SLP082 P0000 T02000144

More Conditions Fewer Conditions

Pressure 29.78 in
Visibility 10.0 miles
Clouds Few 1700 ft
Few 4400 ft
Mostly Cloudy 9500 ft
Heat Index 73 °F
Dew Point 61 °F
Humidity 72%
Rainfall 0.00 in
Snow Depth Not available.
UV 3 out of 12
Pollen 3.10 out of 12
Air Quality Not available.
Flu Activity Not available.
METAR KHSI 301653Z AUTO 19008KT 160V220 10SM -RA FEW017 FEW044 BKN095 20/14 A2981 RMK AO2 RAB46 SLP082 P0000 T02000144

More Conditions Fewer Conditions

10-Day Weather Forecast

Almanac

Astronomy

Sep. 30, 2014 Rise Set
Actual Time 7:29 AM CDT 7:17 PM CDT
Civil Twilight 7:01 AM CDT 7:44 PM CDT
Nautical Twilight 6:30 AM CDT 8:16 PM CDT
Astronomical Twilight 5:58 AM CDT 8:48 PM CDT
Moon 1:39 PM CDT 11:47 PM CDT
Length of Visible Light 12h 42m
Length of Day
11h 48m
Tomorrow will be 2m 39s shorter.
Waxing Crescent, 38% of the Moon is Illuminated
Today
Waxing Crescent
Oct 1
First Quarter
Oct 8
Full
Oct 15
Last Quarter
Oct 23
New

Today's Extremes

State Highs State Lows

Community

WunderPhotos

Upload Photos

1,757,693 photos uploaded!

Nearby

Snow Depth

Station Depth Elevation
No new snow has been reported.

Earthquake Activity

City Distance Mag. Time & Date
No recent earthquake activity has been reported nearby.
Minimum magnitude displayed is 2.5.

Coastal Water Temperatures

Place Temperature
No Stations Reporting

Nearby Weather Stations